createdAt,value
2017-10-18T00:03:53.686Z,0
2017-10-18T00:13:53.609Z,0
2017-10-18T00:23:53.556Z,0
2017-10-18T00:33:53.608Z,0
2017-10-18T00:43:53.595Z,0
2017-10-18T00:53:53.686Z,0
2017-10-18T01:03:53.624Z,0
2017-10-18T01:13:54.605Z,0
2017-10-18T01:23:53.647Z,0
2017-10-18T01:33:53.603Z,0
2017-10-18T01:43:53.594Z,0
2017-10-18T01:53:53.667Z,0
2017-10-18T02:03:53.566Z,0
2017-10-18T02:13:53.666Z,0
2017-10-18T02:23:53.638Z,0
2017-10-18T02:33:53.575Z,0
2017-10-18T02:43:53.632Z,0
2017-10-18T02:53:53.596Z,0
2017-10-18T03:03:53.541Z,0
2017-10-18T03:13:53.577Z,0
2017-10-18T03:23:53.575Z,0
2017-10-18T03:33:53.649Z,0
2017-10-18T03:43:53.626Z,0
2017-10-18T03:53:53.547Z,0
2017-10-18T04:03:53.642Z,0
2017-10-18T04:13:53.608Z,0
2017-10-18T04:23:53.536Z,0
2017-10-18T04:33:53.605Z,0
2017-10-18T04:43:53.546Z,0
2017-10-18T04:53:53.632Z,0
2017-10-18T05:03:53.587Z,0
2017-10-18T05:13:53.579Z,0
2017-10-18T05:23:53.685Z,0
2017-10-18T05:33:53.686Z,4
2017-10-18T05:43:54.722Z,20
2017-10-18T05:53:53.551Z,104
2017-10-18T06:03:53.503Z,300
2017-10-18T06:13:53.536Z,668
2017-10-18T06:23:53.512Z,1076
2017-10-18T06:33:53.477Z,1472
2017-10-18T06:43:53.498Z,1996
2017-10-18T06:53:53.517Z,2816
2017-10-18T07:03:53.511Z,3284
2017-10-18T07:13:53.512Z,3900
2017-10-18T07:23:53.519Z,4256
2017-10-18T07:33:54.655Z,5328
2017-10-18T07:43:53.560Z,5756
2017-10-18T07:53:53.499Z,5624
2017-10-18T08:03:53.490Z,7620
2017-10-18T08:13:53.496Z,7804
2017-10-18T08:23:53.913Z,7340
2017-10-18T08:33:54.263Z,7984
2017-10-18T08:43:53.537Z,7864
2017-10-18T08:53:53.496Z,8500
2017-10-18T09:03:53.509Z,8352
2017-10-18T09:13:53.521Z,8812
2017-10-18T09:23:53.535Z,6580
2017-10-18T09:33:53.549Z,5836
2017-10-18T09:43:53.540Z,6424
2017-10-18T09:53:53.506Z,8420
2017-10-18T10:03:53.525Z,5592
2017-10-18T10:13:53.508Z,4368
2017-10-18T10:23:53.509Z,3816
2017-10-18T10:33:53.521Z,3524
2017-10-18T10:43:53.528Z,3420
2017-10-18T10:53:53.597Z,3092
2017-10-18T11:03:53.629Z,2808
2017-10-18T11:13:53.640Z,2764
2017-10-18T11:23:53.630Z,2720
2017-10-18T11:33:53.688Z,2684
2017-10-18T11:43:53.717Z,2684
2017-10-18T11:53:53.693Z,2716
2017-10-18T12:03:53.622Z,2716
2017-10-18T12:13:53.795Z,2696
2017-10-18T12:23:53.675Z,2708
2017-10-18T12:33:53.672Z,2668
2017-10-18T12:43:53.685Z,2640
2017-10-18T12:53:53.682Z,2612
2017-10-18T13:03:53.686Z,2596
2017-10-18T13:13:53.651Z,2556
2017-10-18T13:23:53.661Z,2788
2017-10-18T13:33:53.675Z,2584
2017-10-18T13:43:53.734Z,2532
2017-10-18T13:53:53.705Z,2508
2017-10-18T14:03:53.655Z,2480
2017-10-18T14:13:53.677Z,2436
2017-10-18T14:23:53.702Z,2380
2017-10-18T14:33:53.786Z,2300
2017-10-18T14:43:53.715Z,2200
2017-10-18T14:53:53.741Z,2080
2017-10-18T15:03:53.807Z,1952
2017-10-18T15:13:53.797Z,1840
2017-10-18T15:23:53.682Z,1592
2017-10-18T15:33:53.683Z,1484
2017-10-18T15:43:53.701Z,1244
2017-10-18T15:53:53.761Z,1020
2017-10-18T16:03:53.925Z,680
2017-10-18T16:13:53.713Z,408
2017-10-18T16:23:53.724Z,204
2017-10-18T16:33:53.722Z,80
2017-10-18T16:43:53.816Z,20
2017-10-18T16:53:53.925Z,4
2017-10-18T17:03:53.765Z,0
2017-10-18T17:14:03.140Z,0
2017-10-18T17:23:58.101Z,0
2017-10-18T17:33:53.767Z,4
2017-10-18T17:43:57.506Z,0
2017-10-18T17:54:04.495Z,4
2017-10-18T18:03:54.877Z,4
2017-10-18T18:13:53.821Z,0
2017-10-18T18:24:01.234Z,0
2017-10-18T18:33:58.440Z,0
2017-10-18T18:43:58.342Z,0
2017-10-18T18:53:54.873Z,0
2017-10-18T19:04:05.637Z,4
2017-10-18T19:14:04.812Z,0
2017-10-18T19:24:01.772Z,4
2017-10-18T19:34:03.461Z,0
2017-10-18T19:44:08.595Z,0
2017-10-18T19:53:55.982Z,0
2017-10-18T20:03:55.902Z,0
2017-10-18T20:23:53.977Z,0
2017-10-18T20:34:13.429Z,0
2017-10-18T20:43:57.228Z,0
2017-10-18T21:03:53.932Z,0
2017-10-18T21:13:54.018Z,0
2017-10-18T21:23:54.679Z,4
2017-10-18T21:33:54.166Z,0
2017-10-18T21:43:54.081Z,0
2017-10-18T21:53:54.060Z,0
2017-10-18T22:03:54.095Z,0
2017-10-18T22:13:54.091Z,0
2017-10-18T22:23:54.155Z,0
2017-10-18T22:33:54.037Z,0
2017-10-18T22:43:54.136Z,0
2017-10-18T22:53:54.092Z,0
2017-10-18T23:03:54.172Z,0
2017-10-18T23:13:54.182Z,0
2017-10-18T23:23:54.362Z,0
2017-10-18T23:33:53.971Z,0
2017-10-18T23:43:53.986Z,0
2017-10-18T23:53:53.929Z,0
